sensor_id;sensor_type;location;lat;lon;timestamp;pressure;altitude;pressure_sealevel;temperature;humidity
77351;BME280;66420;50.246;14.320;2023-05-17T00:00:40;99727.19;;;10.25;55.25
77351;BME280;66420;50.246;14.320;2023-05-17T00:03:25;99732.56;;;10.16;53.99
77351;BME280;66420;50.246;14.320;2023-05-17T00:06:09;99738.22;;;10.20;54.12
77351;BME280;66420;50.246;14.320;2023-05-17T00:08:54;99737.22;;;10.16;54.99
77351;BME280;66420;50.246;14.320;2023-05-17T00:11:39;99747.69;;;10.09;54.36
77351;BME280;66420;50.246;14.320;2023-05-17T00:14:24;99738.78;;;10.03;54.54
77351;BME280;66420;50.246;14.320;2023-05-17T00:17:09;99741.91;;;10.10;54.88
77351;BME280;66420;50.246;14.320;2023-05-17T00:19:54;99748.91;;;10.03;54.50
77351;BME280;66420;50.246;14.320;2023-05-17T00:22:38;99746.09;;;10.08;55.18
77351;BME280;66420;50.246;14.320;2023-05-17T00:25:25;99751.31;;;10.04;54.21
77351;BME280;66420;50.246;14.320;2023-05-17T00:28:09;99761.22;;;10.00;54.30
77351;BME280;66420;50.246;14.320;2023-05-17T00:30:54;99752.63;;;9.93;54.83
77351;BME280;66420;50.246;14.320;2023-05-17T00:33:39;99750.09;;;9.97;54.72
77351;BME280;66420;50.246;14.320;2023-05-17T00:36:24;99758.91;;;9.94;55.31
77351;BME280;66420;50.246;14.320;2023-05-17T00:39:09;99759.81;;;9.89;54.77
77351;BME280;66420;50.246;14.320;2023-05-17T00:41:53;99757.97;;;9.85;55.38
77351;BME280;66420;50.246;14.320;2023-05-17T00:44:38;99769.78;;;9.80;56.14
77351;BME280;66420;50.246;14.320;2023-05-17T00:47:24;99762.50;;;9.75;55.97
77351;BME280;66420;50.246;14.320;2023-05-17T00:50:09;99771.78;;;9.74;55.33
77351;BME280;66420;50.246;14.320;2023-05-17T00:52:55;99762.34;;;9.67;54.88
77351;BME280;66420;50.246;14.320;2023-05-17T00:55:40;99768.19;;;9.60;54.62
77351;BME280;66420;50.246;14.320;2023-05-17T00:58:24;99767.09;;;9.61;56.67
77351;BME280;66420;50.246;14.320;2023-05-17T01:01:09;99763.75;;;9.64;56.16
77351;BME280;66420;50.246;14.320;2023-05-17T01:03:55;99748.09;;;9.51;56.42
77351;BME280;66420;50.246;14.320;2023-05-17T01:06:40;99763.41;;;9.52;57.81
77351;BME280;66420;50.246;14.320;2023-05-17T01:09:25;99769.50;;;9.44;58.13
77351;BME280;66420;50.246;14.320;2023-05-17T01:15:33;99768.47;;;9.40;56.51
77351;BME280;66420;50.246;14.320;2023-05-17T01:18:30;99784.66;;;9.37;56.83
77351;BME280;66420;50.246;14.320;2023-05-17T01:21:34;99787.66;;;9.35;57.22
77351;BME280;66420;50.246;14.320;2023-05-17T01:24:49;99808.13;;;9.38;57.88
77351;BME280;66420;50.246;14.320;2023-05-17T01:27:39;99801.66;;;9.33;57.95
77351;BME280;66420;50.246;14.320;2023-05-17T01:30:24;99810.72;;;9.29;56.35
77351;BME280;66420;50.246;14.320;2023-05-17T01:33:12;99812.41;;;9.25;59.10
77351;BME280;66420;50.246;14.320;2023-05-17T01:35:57;99811.94;;;9.18;58.20
77351;BME280;66420;50.246;14.320;2023-05-17T01:38:42;99815.22;;;9.20;57.29
77351;BME280;66420;50.246;14.320;2023-05-17T01:41:32;99811.88;;;9.23;58.78
77351;BME280;66420;50.246;14.320;2023-05-17T01:47:15;99802.91;;;8.99;57.34
77351;BME280;66420;50.246;14.320;2023-05-17T01:50:04;99805.63;;;8.99;57.59
77351;BME280;66420;50.246;14.320;2023-05-17T01:52:57;99819.81;;;9.01;57.69
77351;BME280;66420;50.246;14.320;2023-05-17T01:55:49;99816.56;;;8.99;58.46
77351;BME280;66420;50.246;14.320;2023-05-17T01:58:45;99824.03;;;8.93;57.47
77351;BME280;66420;50.246;14.320;2023-05-17T02:01:30;99818.84;;;8.92;57.81
77351;BME280;66420;50.246;14.320;2023-05-17T02:04:15;99817.53;;;8.89;58.66
77351;BME280;66420;50.246;14.320;2023-05-17T02:07:01;99814.25;;;8.87;59.83
77351;BME280;66420;50.246;14.320;2023-05-17T02:09:46;99811.81;;;8.85;60.84
77351;BME280;66420;50.246;14.320;2023-05-17T02:12:30;99817.97;;;8.72;59.99
77351;BME280;66420;50.246;14.320;2023-05-17T02:15:15;99819.22;;;8.80;60.92
77351;BME280;66420;50.246;14.320;2023-05-17T02:18:00;99823.19;;;8.69;58.75
77351;BME280;66420;50.246;14.320;2023-05-17T02:20:45;99819.06;;;8.71;59.77
77351;BME280;66420;50.246;14.320;2023-05-17T02:23:30;99827.66;;;8.60;60.45
77351;BME280;66420;50.246;14.320;2023-05-17T02:26:14;99827.94;;;8.58;60.60
77351;BME280;66420;50.246;14.320;2023-05-17T02:28:59;99825.53;;;8.57;60.35
77351;BME280;66420;50.246;14.320;2023-05-17T02:31:43;99830.25;;;8.46;60.91
77351;BME280;66420;50.246;14.320;2023-05-17T02:34:29;99830.31;;;8.41;60.37
77351;BME280;66420;50.246;14.320;2023-05-17T02:37:14;99830.56;;;8.39;60.60
77351;BME280;66420;50.246;14.320;2023-05-17T02:39:58;99838.72;;;8.44;62.65
77351;BME280;66420;50.246;14.320;2023-05-17T02:42:43;99838.47;;;8.41;62.14
77351;BME280;66420;50.246;14.320;2023-05-17T02:45:27;99835.31;;;8.29;60.71
77351;BME280;66420;50.246;14.320;2023-05-17T02:48:12;99832.03;;;8.32;60.34
77351;BME280;66420;50.246;14.320;2023-05-17T02:50:58;99838.34;;;8.22;61.74
77351;BME280;66420;50.246;14.320;2023-05-17T02:53:42;99836.44;;;8.23;61.37
77351;BME280;66420;50.246;14.320;2023-05-17T02:56:27;99845.25;;;8.15;62.42
77351;BME280;66420;50.246;14.320;2023-05-17T02:59:11;99853.16;;;8.11;62.57
77351;BME280;66420;50.246;14.320;2023-05-17T03:01:56;99855.13;;;8.06;62.01
77351;BME280;66420;50.246;14.320;2023-05-17T03:04:41;99853.28;;;7.96;60.78
77351;BME280;66420;50.246;14.320;2023-05-17T03:07:25;99856.28;;;7.94;61.17
77351;BME280;66420;50.246;14.320;2023-05-17T03:10:10;99868.81;;;7.95;61.07
77351;BME280;66420;50.246;14.320;2023-05-17T03:12:54;99857.16;;;7.90;61.52
77351;BME280;66420;50.246;14.320;2023-05-17T03:15:38;99858.22;;;7.89;61.62
77351;BME280;66420;50.246;14.320;2023-05-17T03:18:24;99859.28;;;7.93;60.92
77351;BME280;66420;50.246;14.320;2023-05-17T03:21:09;99862.88;;;7.88;61.80
77351;BME280;66420;50.246;14.320;2023-05-17T03:23:54;99862.88;;;7.88;62.09
77351;BME280;66420;50.246;14.320;2023-05-17T03:26:39;99871.59;;;7.90;61.18
77351;BME280;66420;50.246;14.320;2023-05-17T03:29:23;99880.34;;;7.87;60.90
77351;BME280;66420;50.246;14.320;2023-05-17T03:32:08;99885.75;;;7.92;61.23
77351;BME280;66420;50.246;14.320;2023-05-17T03:34:52;99895.84;;;7.92;61.54
77351;BME280;66420;50.246;14.320;2023-05-17T03:37:37;99888.25;;;7.84;61.06
77351;BME280;66420;50.246;14.320;2023-05-17T03:40:21;99892.31;;;7.86;61.46
77351;BME280;66420;50.246;14.320;2023-05-17T03:43:06;99897.19;;;7.89;60.88
77351;BME280;66420;50.246;14.320;2023-05-17T03:45:51;99899.47;;;7.77;61.05
77351;BME280;66420;50.246;14.320;2023-05-17T03:48:35;99913.59;;;7.79;61.88
77351;BME280;66420;50.246;14.320;2023-05-17T03:51:20;99911.47;;;7.71;62.79
77351;BME280;66420;50.246;14.320;2023-05-17T03:54:04;99913.97;;;7.68;62.19
77351;BME280;66420;50.246;14.320;2023-05-17T03:56:50;99910.16;;;7.64;62.36
77351;BME280;66420;50.246;14.320;2023-05-17T03:59:34;99904.47;;;7.60;62.41
77351;BME280;66420;50.246;14.320;2023-05-17T04:02:19;99914.53;;;7.65;62.82
77351;BME280;66420;50.246;14.320;2023-05-17T04:05:04;99913.16;;;7.62;63.00
77351;BME280;66420;50.246;14.320;2023-05-17T04:07:48;99916.97;;;7.61;64.07
77351;BME280;66420;50.246;14.320;2023-05-17T04:10:33;99917.53;;;7.63;64.79
77351;BME280;66420;50.246;14.320;2023-05-17T04:13:18;99926.00;;;7.56;64.91
77351;BME280;66420;50.246;14.320;2023-05-17T05:06:57;99978.91;;;7.40;68.01
77351;BME280;66420;50.246;14.320;2023-05-17T05:09:42;99985.41;;;7.49;68.49
77351;BME280;66420;50.246;14.320;2023-05-17T05:12:27;99984.81;;;7.63;68.12
77351;BME280;66420;50.246;14.320;2023-05-17T05:15:12;100005.25;;;7.65;67.70
77351;BME280;66420;50.246;14.320;2023-05-17T05:17:57;100005.78;;;7.62;67.46
77351;BME280;66420;50.246;14.320;2023-05-17T05:20:47;100009.09;;;7.54;68.02
77351;BME280;66420;50.246;14.320;2023-05-17T05:23:32;100014.47;;;7.74;68.22
77351;BME280;66420;50.246;14.320;2023-05-17T05:26:16;100023.72;;;7.78;68.17
77351;BME280;66420;50.246;14.320;2023-05-17T05:29:01;100025.63;;;7.78;67.94
77351;BME280;66420;50.246;14.320;2023-05-17T05:31:45;100022.31;;;7.81;68.73
77351;BME280;66420;50.246;14.320;2023-05-17T05:34:31;100016.81;;;7.96;68.39
77351;BME280;66420;50.246;14.320;2023-05-17T05:37:16;100028.47;;;8.07;68.38
77351;BME280;66420;50.246;14.320;2023-05-17T05:40:02;100031.53;;;7.95;68.13
77351;BME280;66420;50.246;14.320;2023-05-17T05:42:47;100035.34;;;7.94;68.16
77351;BME280;66420;50.246;14.320;2023-05-17T05:45:31;100031.16;;;8.12;69.00
77351;BME280;66420;50.246;14.320;2023-05-17T05:48:16;100028.63;;;8.30;67.49
77351;BME280;66420;50.246;14.320;2023-05-17T05:53:29;100037.31;;;8.42;67.34
77351;BME280;66420;50.246;14.320;2023-05-17T05:56:14;100036.47;;;8.47;67.41
77351;BME280;66420;50.246;14.320;2023-05-17T05:58:58;100046.78;;;8.50;68.15
77351;BME280;66420;50.246;14.320;2023-05-17T06:01:44;100047.78;;;8.64;68.29
77351;BME280;66420;50.246;14.320;2023-05-17T06:04:28;100049.88;;;8.77;68.06
77351;BME280;66420;50.246;14.320;2023-05-17T06:07:13;100046.53;;;8.85;67.13
77351;BME280;66420;50.246;14.320;2023-05-17T06:09:59;100053.06;;;8.84;66.87
77351;BME280;66420;50.246;14.320;2023-05-17T06:12:44;100048.00;;;9.07;67.05
77351;BME280;66420;50.246;14.320;2023-05-17T06:15:29;100061.06;;;9.10;67.53
77351;BME280;66420;50.246;14.320;2023-05-17T06:18:14;100054.78;;;9.09;67.17
77351;BME280;66420;50.246;14.320;2023-05-17T06:20:59;100058.50;;;9.23;66.72
77351;BME280;66420;50.246;14.320;2023-05-17T06:23:44;100059.06;;;9.20;66.04
77351;BME280;66420;50.246;14.320;2023-05-17T06:26:29;100060.44;;;9.18;67.27
77351;BME280;66420;50.246;14.320;2023-05-17T06:29:15;100069.66;;;9.27;66.92
77351;BME280;66420;50.246;14.320;2023-05-17T06:31:59;100068.88;;;9.21;65.51
77351;BME280;66420;50.246;14.320;2023-05-17T06:34:44;100065.59;;;9.24;66.48
77351;BME280;66420;50.246;14.320;2023-05-17T06:37:29;100074.06;;;9.23;65.18
77351;BME280;66420;50.246;14.320;2023-05-17T06:40:14;100071.19;;;9.38;66.05
77351;BME280;66420;50.246;14.320;2023-05-17T06:42:58;100079.22;;;9.53;65.02
77351;BME280;66420;50.246;14.320;2023-05-17T06:48:21;100074.03;;;9.81;64.63
77351;BME280;66420;50.246;14.320;2023-05-17T06:51:06;100072.28;;;10.08;64.21
77351;BME280;66420;50.246;14.320;2023-05-17T06:53:52;100073.56;;;10.21;63.85
77351;BME280;66420;50.246;14.320;2023-05-17T06:56:36;100073.84;;;10.19;62.64
77351;BME280;66420;50.246;14.320;2023-05-17T06:59:21;100072.94;;;10.00;63.17
77351;BME280;66420;50.246;14.320;2023-05-17T07:02:05;100075.78;;;10.14;62.62
77351;BME280;66420;50.246;14.320;2023-05-17T07:04:50;100081.59;;;9.89;62.74
77351;BME280;66420;50.246;14.320;2023-05-17T07:07:35;100084.09;;;10.04;62.66
77351;BME280;66420;50.246;14.320;2023-05-17T07:10:20;100083.50;;;10.12;62.68
77351;BME280;66420;50.246;14.320;2023-05-17T07:13:04;100080.53;;;10.51;63.20
77351;BME280;66420;50.246;14.320;2023-05-17T07:15:49;100083.94;;;10.61;62.14
77351;BME280;66420;50.246;14.320;2023-05-17T07:18:34;100079.19;;;10.86;62.60
77351;BME280;66420;50.246;14.320;2023-05-17T07:21:18;100084.66;;;10.86;61.09
77351;BME280;66420;50.246;14.320;2023-05-17T07:24:03;100087.47;;;10.81;60.91
77351;BME280;66420;50.246;14.320;2023-05-17T07:26:48;100087.22;;;10.96;60.36
77351;BME280;66420;50.246;14.320;2023-05-17T07:29:33;100078.78;;;11.11;60.93
77351;BME280;66420;50.246;14.320;2023-05-17T07:32:17;100085.31;;;10.78;60.95
77351;BME280;66420;50.246;14.320;2023-05-17T07:35:02;100084.34;;;10.87;61.13
77351;BME280;66420;50.246;14.320;2023-05-17T07:37:48;100077.72;;;10.75;61.34
77351;BME280;66420;50.246;14.320;2023-05-17T07:40:32;100087.69;;;10.84;61.61
77351;BME280;66420;50.246;14.320;2023-05-17T07:43:17;100085.28;;;11.15;62.38
77351;BME280;66420;50.246;14.320;2023-05-17T07:46:03;100096.81;;;11.31;61.45
77351;BME280;66420;50.246;14.320;2023-05-17T07:48:48;100084.22;;;10.79;60.63
77351;BME280;66420;50.246;14.320;2023-05-17T07:51:33;100090.66;;;10.69;60.76
77351;BME280;66420;50.246;14.320;2023-05-17T07:54:22;100090.97;;;10.68;61.33
77351;BME280;66420;50.246;14.320;2023-05-17T07:57:08;100083.31;;;11.02;61.43
77351;BME280;66420;50.246;14.320;2023-05-17T07:59:53;100081.38;;;11.02;61.21
77351;BME280;66420;50.246;14.320;2023-05-17T08:02:41;100089.09;;;10.82;60.62
77351;BME280;66420;50.246;14.320;2023-05-17T08:05:26;100082.97;;;11.22;59.97
77351;BME280;66420;50.246;14.320;2023-05-17T08:08:11;100077.66;;;11.12;59.61
77351;BME280;66420;50.246;14.320;2023-05-17T08:10:56;100094.78;;;11.04;60.94
77351;BME280;66420;50.246;14.320;2023-05-17T08:13:41;100087.44;;;11.18;60.14
77351;BME280;66420;50.246;14.320;2023-05-17T08:16:25;100104.09;;;11.22;58.94
77351;BME280;66420;50.246;14.320;2023-05-17T08:19:11;100092.47;;;11.11;59.36
77351;BME280;66420;50.246;14.320;2023-05-17T08:21:56;100091.94;;;11.09;59.81
77351;BME280;66420;50.246;14.320;2023-05-17T08:24:42;100096.34;;;11.24;59.57
77351;BME280;66420;50.246;14.320;2023-05-17T08:27:28;100098.66;;;11.35;58.41
77351;BME280;66420;50.246;14.320;2023-05-17T08:30:15;100103.94;;;11.45;60.01
77351;BME280;66420;50.246;14.320;2023-05-17T08:33:00;100108.75;;;11.21;58.81
77351;BME280;66420;50.246;14.320;2023-05-17T08:35:45;100099.13;;;11.05;60.19
77351;BME280;66420;50.246;14.320;2023-05-17T08:38:30;100110.91;;;11.05;59.23
77351;BME280;66420;50.246;14.320;2023-05-17T08:41:15;100115.25;;;11.25;60.05
77351;BME280;66420;50.246;14.320;2023-05-17T08:44:00;100109.59;;;11.35;59.90
77351;BME280;66420;50.246;14.320;2023-05-17T08:46:46;100110.53;;;11.12;58.78
77351;BME280;66420;50.246;14.320;2023-05-17T08:49:37;100110.13;;;11.19;58.93
77351;BME280;66420;50.246;14.320;2023-05-17T08:52:21;100108.06;;;11.29;58.76
77351;BME280;66420;50.246;14.320;2023-05-17T08:55:07;100107.19;;;11.47;58.81
77351;BME280;66420;50.246;14.320;2023-05-17T08:57:52;100127.69;;;11.36;58.03
77351;BME280;66420;50.246;14.320;2023-05-17T09:00:38;100120.03;;;11.33;58.43
77351;BME280;66420;50.246;14.320;2023-05-17T09:03:23;100111.31;;;11.31;56.49
77351;BME280;66420;50.246;14.320;2023-05-17T09:06:08;100117.63;;;11.32;58.11
77351;BME280;66420;50.246;14.320;2023-05-17T09:08:54;100111.66;;;11.43;59.27
77351;BME280;66420;50.246;14.320;2023-05-17T09:11:39;100113.09;;;11.54;57.93
77351;BME280;66420;50.246;14.320;2023-05-17T09:14:24;100116.16;;;11.67;57.43
77351;BME280;66420;50.246;14.320;2023-05-17T09:17:13;100108.38;;;11.74;56.60
77351;BME280;66420;50.246;14.320;2023-05-17T09:19:58;100117.03;;;11.81;55.05
77351;BME280;66420;50.246;14.320;2023-05-17T09:22:43;100116.03;;;12.04;56.27
77351;BME280;66420;50.246;14.320;2023-05-17T09:25:29;100121.72;;;11.94;55.20
77351;BME280;66420;50.246;14.320;2023-05-17T09:28:17;100121.09;;;11.97;55.42
77351;BME280;66420;50.246;14.320;2023-05-17T09:31:07;100120.59;;;12.22;55.92
77351;BME280;66420;50.246;14.320;2023-05-17T09:33:52;100125.69;;;12.15;55.41
77351;BME280;66420;50.246;14.320;2023-05-17T09:36:40;100124.56;;;12.16;56.81
77351;BME280;66420;50.246;14.320;2023-05-17T09:39:25;100118.34;;;12.11;55.14
77351;BME280;66420;50.246;14.320;2023-05-17T09:42:14;100115.22;;;12.17;56.10
77351;BME280;66420;50.246;14.320;2023-05-17T09:45:00;100124.31;;;12.54;55.47
77351;BME280;66420;50.246;14.320;2023-05-17T09:47:45;100127.34;;;12.66;54.94
77351;BME280;66420;50.246;14.320;2023-05-17T09:50:32;100119.03;;;12.57;55.21
77351;BME280;66420;50.246;14.320;2023-05-17T09:56:10;100122.59;;;12.58;56.32
77351;BME280;66420;50.246;14.320;2023-05-17T09:58:55;100137.25;;;12.39;57.39
77351;BME280;66420;50.246;14.320;2023-05-17T10:01:41;100131.84;;;12.48;55.86
77351;BME280;66420;50.246;14.320;2023-05-17T10:04:30;100124.75;;;12.33;55.14
77351;BME280;66420;50.246;14.320;2023-05-17T10:07:18;100132.16;;;12.47;54.86
77351;BME280;66420;50.246;14.320;2023-05-17T10:10:04;100122.06;;;12.69;55.06
77351;BME280;66420;50.246;14.320;2023-05-17T10:12:50;100130.19;;;12.61;55.08
77351;BME280;66420;50.246;14.320;2023-05-17T10:15:36;100123.38;;;12.72;53.51
77351;BME280;66420;50.246;14.320;2023-05-17T10:18:22;100114.13;;;12.68;55.77
77351;BME280;66420;50.246;14.320;2023-05-17T10:21:08;100119.53;;;12.59;54.95
77351;BME280;66420;50.246;14.320;2023-05-17T10:23:54;100112.34;;;12.50;55.09
77351;BME280;66420;50.246;14.320;2023-05-17T10:26:39;100115.97;;;12.59;55.30
77351;BME280;66420;50.246;14.320;2023-05-17T10:29:25;100107.59;;;12.77;55.76
77351;BME280;66420;50.246;14.320;2023-05-17T10:32:12;100122.38;;;12.68;53.63
77351;BME280;66420;50.246;14.320;2023-05-17T10:34:57;100114.41;;;12.80;52.42
77351;BME280;66420;50.246;14.320;2023-05-17T10:37:42;100116.66;;;12.78;52.67
77351;BME280;66420;50.246;14.320;2023-05-17T10:40:28;100119.88;;;12.30;51.60
77351;BME280;66420;50.246;14.320;2023-05-17T10:43:14;100117.28;;;12.61;53.00
77351;BME280;66420;50.246;14.320;2023-05-17T10:46:02;100113.72;;;12.61;51.39
77351;BME280;66420;50.246;14.320;2023-05-17T10:48:49;100117.00;;;12.63;52.59
77351;BME280;66420;50.246;14.320;2023-05-17T10:51:36;100119.97;;;12.88;53.16
77351;BME280;66420;50.246;14.320;2023-05-17T10:54:33;100116.91;;;12.90;52.75
77351;BME280;66420;50.246;14.320;2023-05-17T10:57:32;100111.03;;;12.83;51.84
77351;BME280;66420;50.246;14.320;2023-05-17T11:00:20;100117.03;;;12.85;53.10
77351;BME280;66420;50.246;14.320;2023-05-17T11:03:16;100113.91;;;12.78;53.24
77351;BME280;66420;50.246;14.320;2023-05-17T11:06:18;100112.69;;;12.70;52.20
77351;BME280;66420;50.246;14.320;2023-05-17T11:09:14;100110.06;;;13.01;52.68
77351;BME280;66420;50.246;14.320;2023-05-17T11:12:07;100100.19;;;13.00;51.94
77351;BME280;66420;50.246;14.320;2023-05-17T11:14:53;100104.94;;;12.86;52.07
77351;BME280;66420;50.246;14.320;2023-05-17T11:23:15;100100.50;;;12.99;54.14
77351;BME280;66420;50.246;14.320;2023-05-17T11:26:15;100103.09;;;13.17;53.14
77351;BME280;66420;50.246;14.320;2023-05-17T11:29:07;100106.69;;;13.04;51.71
77351;BME280;66420;50.246;14.320;2023-05-17T11:31:53;100105.25;;;13.07;52.90
77351;BME280;66420;50.246;14.320;2023-05-17T11:34:38;100094.31;;;12.93;50.91
77351;BME280;66420;50.246;14.320;2023-05-17T11:37:29;100103.22;;;13.12;51.42
77351;BME280;66420;50.246;14.320;2023-05-17T11:40:23;100098.72;;;13.16;51.72
77351;BME280;66420;50.246;14.320;2023-05-17T11:43:38;100099.22;;;13.18;48.96
77351;BME280;66420;50.246;14.320;2023-05-17T11:46:29;100094.44;;;13.55;49.16
77351;BME280;66420;50.246;14.320;2023-05-17T11:49:15;100093.38;;;13.34;49.20
77351;BME280;66420;50.246;14.320;2023-05-17T11:52:00;100094.63;;;13.58;50.81
77351;BME280;66420;50.246;14.320;2023-05-17T11:54:45;100105.47;;;13.32;50.84
77351;BME280;66420;50.246;14.320;2023-05-17T11:57:31;100101.03;;;13.45;52.63
77351;BME280;66420;50.246;14.320;2023-05-17T12:00:23;100100.91;;;13.28;50.81
77351;BME280;66420;50.246;14.320;2023-05-17T12:03:21;100108.84;;;13.29;50.50
77351;BME280;66420;50.246;14.320;2023-05-17T12:06:08;100106.44;;;13.59;48.12
77351;BME280;66420;50.246;14.320;2023-05-17T12:08:53;100116.22;;;13.43;49.66
77351;BME280;66420;50.246;14.320;2023-05-17T12:11:39;100106.63;;;13.62;50.96
77351;BME280;66420;50.246;14.320;2023-05-17T12:14:26;100113.56;;;13.91;51.57
77351;BME280;66420;50.246;14.320;2023-05-17T12:17:18;100122.16;;;13.67;51.47
77351;BME280;66420;50.246;14.320;2023-05-17T12:20:06;100133.69;;;13.69;52.15
77351;BME280;66420;50.246;14.320;2023-05-17T12:22:55;100124.66;;;13.77;50.45
77351;BME280;66420;50.246;14.320;2023-05-17T12:25:40;100121.41;;;13.75;50.66
77351;BME280;66420;50.246;14.320;2023-05-17T12:28:25;100127.19;;;13.65;49.63
77351;BME280;66420;50.246;14.320;2023-05-17T12:31:12;100115.28;;;13.78;50.05
77351;BME280;66420;50.246;14.320;2023-05-17T12:33:58;100124.38;;;13.87;47.83
77351;BME280;66420;50.246;14.320;2023-05-17T12:36:45;100123.53;;;13.78;50.31
77351;BME280;66420;50.246;14.320;2023-05-17T12:39:30;100139.44;;;13.59;50.40
77351;BME280;66420;50.246;14.320;2023-05-17T12:42:15;100139.19;;;13.69;50.35
77351;BME280;66420;50.246;14.320;2023-05-17T12:45:00;100142.44;;;13.26;50.90
77351;BME280;66420;50.246;14.320;2023-05-17T12:47:45;100148.69;;;13.41;51.10
77351;BME280;66420;50.246;14.320;2023-05-17T12:50:30;100152.50;;;13.53;49.92
77351;BME280;66420;50.246;14.320;2023-05-17T12:53:16;100147.47;;;13.47;51.37
77351;BME280;66420;50.246;14.320;2023-05-17T12:56:00;100146.13;;;13.44;51.11
77351;BME280;66420;50.246;14.320;2023-05-17T12:59:03;100143.66;;;12.98;50.88
77351;BME280;66420;50.246;14.320;2023-05-17T13:01:50;100140.16;;;13.06;51.52
77351;BME280;66420;50.246;14.320;2023-05-17T13:04:35;100145.00;;;12.87;50.46
77351;BME280;66420;50.246;14.320;2023-05-17T13:07:22;100137.25;;;12.89;50.05
77351;BME280;66420;50.246;14.320;2023-05-17T13:10:24;100137.03;;;12.99;51.30
77351;BME280;66420;50.246;14.320;2023-05-17T13:13:17;100140.47;;;13.18;51.58
77351;BME280;66420;50.246;14.320;2023-05-17T13:16:03;100135.78;;;13.41;49.97
77351;BME280;66420;50.246;14.320;2023-05-17T13:18:49;100123.13;;;13.62;50.31
77351;BME280;66420;50.246;14.320;2023-05-17T13:21:34;100121.66;;;13.56;49.10
77351;BME280;66420;50.246;14.320;2023-05-17T13:24:19;100129.97;;;14.04;50.54
77351;BME280;66420;50.246;14.320;2023-05-17T13:27:04;100128.44;;;13.90;49.38
77351;BME280;66420;50.246;14.320;2023-05-17T13:29:49;100134.53;;;13.78;49.32
77351;BME280;66420;50.246;14.320;2023-05-17T13:32:34;100140.25;;;13.90;49.20
77351;BME280;66420;50.246;14.320;2023-05-17T13:35:19;100130.63;;;14.10;52.61
77351;BME280;66420;50.246;14.320;2023-05-17T13:38:04;100126.63;;;14.16;50.52
77351;BME280;66420;50.246;14.320;2023-05-17T13:40:49;100121.66;;;13.96;47.57
77351;BME280;66420;50.246;14.320;2023-05-17T13:43:35;100131.19;;;14.20;47.91
77351;BME280;66420;50.246;14.320;2023-05-17T13:46:20;100122.41;;;14.18;45.45
77351;BME280;66420;50.246;14.320;2023-05-17T13:49:05;100123.78;;;13.99;46.74
77351;BME280;66420;50.246;14.320;2023-05-17T13:51:51;100122.94;;;13.90;45.51
77351;BME280;66420;50.246;14.320;2023-05-17T13:54:36;100118.66;;;14.14;47.11
77351;BME280;66420;50.246;14.320;2023-05-17T13:57:21;100126.91;;;14.06;44.75
77351;BME280;66420;50.246;14.320;2023-05-17T14:00:06;100119.78;;;14.13;45.40
77351;BME280;66420;50.246;14.320;2023-05-17T14:02:51;100104.63;;;13.85;43.68
77351;BME280;66420;50.246;14.320;2023-05-17T14:05:36;100108.81;;;14.22;44.87
77351;BME280;66420;50.246;14.320;2023-05-17T14:08:20;100116.13;;;14.27;46.67
77351;BME280;66420;50.246;14.320;2023-05-17T14:11:05;100118.19;;;14.21;44.29
77351;BME280;66420;50.246;14.320;2023-05-17T14:13:50;100112.63;;;14.04;45.88
77351;BME280;66420;50.246;14.320;2023-05-17T14:16:34;100125.19;;;13.88;45.30
77351;BME280;66420;50.246;14.320;2023-05-17T14:19:19;100118.81;;;13.70;46.10
77351;BME280;66420;50.246;14.320;2023-05-17T14:22:04;100119.19;;;13.86;45.66
77351;BME280;66420;50.246;14.320;2023-05-17T14:24:49;100114.56;;;14.03;46.95
77351;BME280;66420;50.246;14.320;2023-05-17T14:27:33;100121.63;;;14.27;46.12
77351;BME280;66420;50.246;14.320;2023-05-17T14:30:18;100122.53;;;14.53;47.25
77351;BME280;66420;50.246;14.320;2023-05-17T14:33:03;100104.75;;;14.19;44.89
77351;BME280;66420;50.246;14.320;2023-05-17T14:35:49;100109.84;;;13.95;45.33
77351;BME280;66420;50.246;14.320;2023-05-17T14:38:33;100105.47;;;14.34;46.49
77351;BME280;66420;50.246;14.320;2023-05-17T14:41:18;100112.56;;;14.35;45.65
77351;BME280;66420;50.246;14.320;2023-05-17T14:44:03;100120.25;;;14.38;46.22
77351;BME280;66420;50.246;14.320;2023-05-17T14:46:48;100118.06;;;14.35;45.62
77351;BME280;66420;50.246;14.320;2023-05-17T14:49:33;100118.25;;;14.30;45.49
77351;BME280;66420;50.246;14.320;2023-05-17T14:52:19;100115.41;;;14.12;46.96
77351;BME280;66420;50.246;14.320;2023-05-17T14:55:03;100126.69;;;14.02;44.07
77351;BME280;66420;50.246;14.320;2023-05-17T14:57:48;100133.84;;;14.03;43.92
77351;BME280;66420;50.246;14.320;2023-05-17T15:00:36;100133.38;;;14.10;44.54
77351;BME280;66420;50.246;14.320;2023-05-17T15:03:21;100134.78;;;13.99;43.50
77351;BME280;66420;50.246;14.320;2023-05-17T15:06:05;100132.50;;;13.92;43.13
77351;BME280;66420;50.246;14.320;2023-05-17T15:08:50;100125.84;;;13.93;44.62
77351;BME280;66420;50.246;14.320;2023-05-17T15:11:35;100121.84;;;13.99;44.67
77351;BME280;66420;50.246;14.320;2023-05-17T15:14:20;100124.06;;;13.89;43.92
77351;BME280;66420;50.246;14.320;2023-05-17T15:17:07;100120.53;;;13.88;45.15
77351;BME280;66420;50.246;14.320;2023-05-17T15:19:51;100126.03;;;13.88;43.08
77351;BME280;66420;50.246;14.320;2023-05-17T15:22:37;100136.16;;;13.79;42.97
77351;BME280;66420;50.246;14.320;2023-05-17T15:25:21;100135.78;;;13.72;42.57
77351;BME280;66420;50.246;14.320;2023-05-17T15:28:06;100148.13;;;13.74;43.66
77351;BME280;66420;50.246;14.320;2023-05-17T15:30:59;100148.44;;;13.73;45.51
77351;BME280;66420;50.246;14.320;2023-05-17T15:33:44;100150.44;;;13.59;44.40
77351;BME280;66420;50.246;14.320;2023-05-17T15:36:30;100158.69;;;13.59;44.27